<?xml version="1.0" encoding="utf-8"?>
<gpx xmlns:xsi="http://www.w3.org/2001/XMLSchema-instance" xmlns:xsd="http://www.w3.org/2001/XMLSchema" version="1.1" creator="Shapelink.com" xmlns="http://www.topografix.com/GPX/1/1" xmlns:gpxtpx="http://www.garmin.com/xmlschemas/TrackPointExtension/v1">
  <metadata>
    <name>Gåing 5.10 km, 2012-02-29</name>
    <desc></desc>
    <author><name>Mikael Blom</name></author> 
    <time>2012-02-29T15:29:52Z</time>
  </metadata>
  <trk>
    <name>Gåing 5.10 km, 2012-02-29</name>
    <trkseg>
      <trkpt lat="59.9784783" lon="17.7393481">
        <ele>40.0321</ele>
        <time>2012-02-29T15:29:52Z</time>
      </trkpt>
      <trkpt lat="59.9784243" lon="17.7393199">
        <ele>35.7061</ele>
        <time>2012-02-29T15:29:57Z</time>
      </trkpt>
      <trkpt lat="59.9784108" lon="17.7392985">
        <ele>31.3801</ele>
        <time>2012-02-29T15:30:00Z</time>
      </trkpt>
      <trkpt lat="59.9783456" lon="17.7392848">
        <ele>34.2642</ele>
        <time>2012-02-29T15:30:04Z</time>
      </trkpt>
      <trkpt lat="59.9782742" lon="17.7393071">
        <ele>33.3029</ele>
        <time>2012-02-29T15:30:09Z</time>
      </trkpt>
      <trkpt lat="59.9782036" lon="17.7392915">
        <ele>36.1868</ele>
        <time>2012-02-29T15:30:13Z</time>
      </trkpt>
      <trkpt lat="59.9781585" lon="17.7392645">
        <ele>36.6675</ele>
        <time>2012-02-29T15:30:16Z</time>
      </trkpt>
      <trkpt lat="59.9781359" lon="17.7392563">
        <ele>38.1094</ele>
        <time>2012-02-29T15:30:18Z</time>
      </trkpt>
      <trkpt lat="59.9780582" lon="17.7392345">
        <ele>40.9934</ele>
        <time>2012-02-29T15:30:22Z</time>
      </trkpt>
      <trkpt lat="59.9780397" lon="17.7392299">
        <ele>40.9934</ele>
        <time>2012-02-29T15:30:23Z</time>
      </trkpt>
      <trkpt lat="59.9779649" lon="17.73922">
        <ele>42.4354</ele>
        <time>2012-02-29T15:30:28Z</time>
      </trkpt>
      <trkpt lat="59.977953" lon="17.7392113">
        <ele>42.916</ele>
        <time>2012-02-29T15:30:29Z</time>
      </trkpt>
      <trkpt lat="59.9779354" lon="17.7391813">
        <ele>43.3966</ele>
        <time>2012-02-29T15:30:31Z</time>
      </trkpt>
      <trkpt lat="59.9779112" lon="17.7390487">
        <ele>40.0321</ele>
        <time>2012-02-29T15:30:36Z</time>
      </trkpt>
      <trkpt lat="59.9779095" lon="17.7389823">
        <ele>39.5513</ele>
        <time>2012-02-29T15:30:38Z</time>
      </trkpt>
      <trkpt lat="59.9777942" lon="17.7390233">
        <ele>40.0321</ele>
        <time>2012-02-29T15:30:43Z</time>
      </trkpt>
      <trkpt lat="59.9777617" lon="17.7390155">
        <ele>40.9934</ele>
        <time>2012-02-29T15:30:45Z</time>
      </trkpt>
      <trkpt lat="59.9776409" lon="17.7390286">
        <ele>41.9547</ele>
        <time>2012-02-29T15:30:52Z</time>
      </trkpt>
      <trkpt lat="59.9775276" lon="17.7390255">
        <ele>39.5513</ele>
        <time>2012-02-29T15:30:59Z</time>
      </trkpt>
      <trkpt lat="59.9775039" lon="17.73903">
        <ele>39.0707</ele>
        <time>2012-02-29T15:31:01Z</time>
      </trkpt>
      <trkpt lat="59.9774323" lon="17.7390025">
        <ele>35.7061</ele>
        <time>2012-02-29T15:31:06Z</time>
      </trkpt>
      <trkpt lat="59.9773803" lon="17.7390404">
        <ele>35.2255</ele>
        <time>2012-02-29T15:31:09Z</time>
      </trkpt>
      <trkpt lat="59.9772691" lon="17.7391324">
        <ele>32.8223</ele>
        <time>2012-02-29T15:31:15Z</time>
      </trkpt>
      <trkpt lat="59.9771935" lon="17.7391966">
        <ele>31.3801</ele>
        <time>2012-02-29T15:31:19Z</time>
      </trkpt>
      <trkpt lat="59.9771246" lon="17.7392503">
        <ele>31.3801</ele>
        <time>2012-02-29T15:31:25Z</time>
      </trkpt>
      <trkpt lat="59.9770588" lon="17.739302">
        <ele>31.8607</ele>
        <time>2012-02-29T15:31:30Z</time>
      </trkpt>
      <trkpt lat="59.9769527" lon="17.7393454">
        <ele>35.2255</ele>
        <time>2012-02-29T15:31:37Z</time>
      </trkpt>
      <trkpt lat="59.9768533" lon="17.739392">
        <ele>35.2255</ele>
        <time>2012-02-29T15:31:43Z</time>
      </trkpt>
      <trkpt lat="59.9767702" lon="17.7394277">
        <ele>34.7449</ele>
        <time>2012-02-29T15:31:49Z</time>
      </trkpt>
      <trkpt lat="59.9766688" lon="17.7394898">
        <ele>35.7061</ele>
        <time>2012-02-29T15:31:56Z</time>
      </trkpt>
      <trkpt lat="59.9765786" lon="17.7395765">
        <ele>36.1868</ele>
        <time>2012-02-29T15:32:03Z</time>
      </trkpt>
      <trkpt lat="59.9764988" lon="17.7396882">
        <ele>38.5901</ele>
        <time>2012-02-29T15:32:11Z</time>
      </trkpt>
      <trkpt lat="59.9764563" lon="17.7397889">
        <ele>38.1094</ele>
        <time>2012-02-29T15:32:16Z</time>
      </trkpt>
      <trkpt lat="59.9764233" lon="17.7398692">
        <ele>38.1094</ele>
        <time>2012-02-29T15:32:20Z</time>
      </trkpt>
      <trkpt lat="59.9763604" lon="17.7400614">
        <ele>37.6287</ele>
        <time>2012-02-29T15:32:28Z</time>
      </trkpt>
      <trkpt lat="59.976319" lon="17.7402204">
        <ele>37.6287</ele>
        <time>2012-02-29T15:32:34Z</time>
      </trkpt>
      <trkpt lat="59.9762378" lon="17.7403943">
        <ele>37.6287</ele>
        <time>2012-02-29T15:32:41Z</time>
      </trkpt>
      <trkpt lat="59.9761642" lon="17.7405779">
        <ele>38.1094</ele>
        <time>2012-02-29T15:32:48Z</time>
      </trkpt>
      <trkpt lat="59.9761092" lon="17.7407617">
        <ele>38.5901</ele>
        <time>2012-02-29T15:32:55Z</time>
      </trkpt>
      <trkpt lat="59.9760612" lon="17.7409332">
        <ele>39.0707</ele>
        <time>2012-02-29T15:33:01Z</time>
      </trkpt>
      <trkpt lat="59.9760144" lon="17.741127">
        <ele>40.0321</ele>
        <time>2012-02-29T15:33:08Z</time>
      </trkpt>
      <trkpt lat="59.9759956" lon="17.7412185">
        <ele>40.5128</ele>
        <time>2012-02-29T15:33:11Z</time>
      </trkpt>
      <trkpt lat="59.975956" lon="17.741379">
        <ele>39.5513</ele>
        <time>2012-02-29T15:33:16Z</time>
      </trkpt>
      <trkpt lat="59.9759452" lon="17.7414714">
        <ele>40.0321</ele>
        <time>2012-02-29T15:33:19Z</time>
      </trkpt>
      <trkpt lat="59.9758986" lon="17.7416636">
        <ele>40.5128</ele>
        <time>2012-02-29T15:33:26Z</time>
      </trkpt>
      <trkpt lat="59.9758509" lon="17.7418956">
        <ele>40.0321</ele>
        <time>2012-02-29T15:33:34Z</time>
      </trkpt>
      <trkpt lat="59.9758108" lon="17.7420945">
        <ele>39.0707</ele>
        <time>2012-02-29T15:33:41Z</time>
      </trkpt>
      <trkpt lat="59.9757637" lon="17.7421992">
        <ele>38.5901</ele>
        <time>2012-02-29T15:33:45Z</time>
      </trkpt>
      <trkpt lat="59.9757066" lon="17.7423671">
        <ele>38.1094</ele>
        <time>2012-02-29T15:33:51Z</time>
      </trkpt>
      <trkpt lat="59.9756508" lon="17.7425225">
        <ele>39.5513</ele>
        <time>2012-02-29T15:33:57Z</time>
      </trkpt>
      <trkpt lat="59.9756053" lon="17.7426732">
        <ele>38.5901</ele>
        <time>2012-02-29T15:34:03Z</time>
      </trkpt>
      <trkpt lat="59.9755471" lon="17.7428359">
        <ele>38.5901</ele>
        <time>2012-02-29T15:34:09Z</time>
      </trkpt>
      <trkpt lat="59.9754903" lon="17.7430514">
        <ele>38.1094</ele>
        <time>2012-02-29T15:34:16Z</time>
      </trkpt>
      <trkpt lat="59.9754368" lon="17.7432621">
        <ele>36.6675</ele>
        <time>2012-02-29T15:34:23Z</time>
      </trkpt>
      <trkpt lat="59.975397" lon="17.7434124">
        <ele>35.7061</ele>
        <time>2012-02-29T15:34:28Z</time>
      </trkpt>
      <trkpt lat="59.9753732" lon="17.7435075">
        <ele>36.1868</ele>
        <time>2012-02-29T15:34:31Z</time>
      </trkpt>
      <trkpt lat="59.9754036" lon="17.7436331">
        <ele>36.6675</ele>
        <time>2012-02-29T15:34:37Z</time>
      </trkpt>
      <trkpt lat="59.9753875" lon="17.7437771">
        <ele>36.1868</ele>
        <time>2012-02-29T15:34:41Z</time>
      </trkpt>
      <trkpt lat="59.9753706" lon="17.7438401">
        <ele>36.6675</ele>
        <time>2012-02-29T15:34:43Z</time>
      </trkpt>
      <trkpt lat="59.9753093" lon="17.744077">
        <ele>36.6675</ele>
        <time>2012-02-29T15:34:51Z</time>
      </trkpt>
      <trkpt lat="59.9752654" lon="17.7442485">
        <ele>35.2255</ele>
        <time>2012-02-29T15:34:57Z</time>
      </trkpt>
      <trkpt lat="59.9752536" lon="17.7443069">
        <ele>33.7834</ele>
        <time>2012-02-29T15:34:59Z</time>
      </trkpt>
      <trkpt lat="59.9752225" lon="17.744409">
        <ele>34.7449</ele>
        <time>2012-02-29T15:35:03Z</time>
      </trkpt>
      <trkpt lat="59.9751734" lon="17.7445949">
        <ele>36.6675</ele>
        <time>2012-02-29T15:35:10Z</time>
      </trkpt>
      <trkpt lat="59.9751649" lon="17.7446218">
        <ele>36.6675</ele>
        <time>2012-02-29T15:35:11Z</time>
      </trkpt>
      <trkpt lat="59.9751254" lon="17.7447467">
        <ele>37.6287</ele>
        <time>2012-02-29T15:35:16Z</time>
      </trkpt>
      <trkpt lat="59.9750712" lon="17.7449077">
        <ele>38.1094</ele>
        <time>2012-02-29T15:35:22Z</time>
      </trkpt>
      <trkpt lat="59.9750224" lon="17.7450429">
        <ele>39.0707</ele>
        <time>2012-02-29T15:35:27Z</time>
      </trkpt>
      <trkpt lat="59.974984" lon="17.7452296">
        <ele>38.1094</ele>
        <time>2012-02-29T15:35:34Z</time>
      </trkpt>
      <trkpt lat="59.9749513" lon="17.7453627">
        <ele>39.0707</ele>
        <time>2012-02-29T15:35:39Z</time>
      </trkpt>
      <trkpt lat="59.9749037" lon="17.7454782">
        <ele>40.5128</ele>
        <time>2012-02-29T15:35:44Z</time>
      </trkpt>
      <trkpt lat="59.9748889" lon="17.7455301">
        <ele>40.5128</ele>
        <time>2012-02-29T15:35:46Z</time>
      </trkpt>
      <trkpt lat="59.9748418" lon="17.7456552">
        <ele>39.0707</ele>
        <time>2012-02-29T15:35:50Z</time>
      </trkpt>
      <trkpt lat="59.9747779" lon="17.7457923">
        <ele>38.1094</ele>
        <time>2012-02-29T15:35:55Z</time>
      </trkpt>
      <trkpt lat="59.9747525" lon="17.745849">
        <ele>37.6287</ele>
        <time>2012-02-29T15:35:58Z</time>
      </trkpt>
      <trkpt lat="59.9747039" lon="17.7459735">
        <ele>37.6287</ele>
        <time>2012-02-29T15:36:03Z</time>
      </trkpt>
      <trkpt lat="59.9746806" lon="17.7460299">
        <ele>38.5901</ele>
        <time>2012-02-29T15:36:05Z</time>
      </trkpt>
      <trkpt lat="59.9746175" lon="17.7461313">
        <ele>38.5901</ele>
        <time>2012-02-29T15:36:10Z</time>
      </trkpt>
      <trkpt lat="59.9745525" lon="17.7462412">
        <ele>35.7061</ele>
        <time>2012-02-29T15:36:16Z</time>
      </trkpt>
      <trkpt lat="59.9744382" lon="17.746365">
        <ele>35.7061</ele>
        <time>2012-02-29T15:36:22Z</time>
      </trkpt>
      <trkpt lat="59.9743774" lon="17.7464442">
        <ele>36.6675</ele>
        <time>2012-02-29T15:36:24Z</time>
      </trkpt>
      <trkpt lat="59.9743008" lon="17.7465746">
        <ele>36.6675</ele>
        <time>2012-02-29T15:36:30Z</time>
      </trkpt>
      <trkpt lat="59.9742564" lon="17.7466573">
        <ele>37.1481</ele>
        <time>2012-02-29T15:36:34Z</time>
      </trkpt>
      <trkpt lat="59.9742099" lon="17.746733">
        <ele>37.1481</ele>
        <time>2012-02-29T15:36:39Z</time>
      </trkpt>
      <trkpt lat="59.9741574" lon="17.74681">
        <ele>37.1481</ele>
        <time>2012-02-29T15:36:43Z</time>
      </trkpt>
      <trkpt lat="59.9740657" lon="17.7469504">
        <ele>39.5513</ele>
        <time>2012-02-29T15:36:49Z</time>
      </trkpt>
      <trkpt lat="59.973978" lon="17.7470738">
        <ele>40.9934</ele>
        <time>2012-02-29T15:36:55Z</time>
      </trkpt>
      <trkpt lat="59.9739009" lon="17.7471659">
        <ele>39.0707</ele>
        <time>2012-02-29T15:37:00Z</time>
      </trkpt>
      <trkpt lat="59.9738563" lon="17.7472175">
        <ele>36.6675</ele>
        <time>2012-02-29T15:37:04Z</time>
      </trkpt>
      <trkpt lat="59.973801" lon="17.747296">
        <ele>34.7449</ele>
        <time>2012-02-29T15:37:10Z</time>
      </trkpt>
      <trkpt lat="59.973759" lon="17.7473727">
        <ele>36.6675</ele>
        <time>2012-02-29T15:37:14Z</time>
      </trkpt>
      <trkpt lat="59.9737545" lon="17.7473767">
        <ele>36.6675</ele>
        <time>2012-02-29T15:37:15Z</time>
      </trkpt>
      <trkpt lat="59.9736689" lon="17.7474504">
        <ele>37.6287</ele>
        <time>2012-02-29T15:37:21Z</time>
      </trkpt>
      <trkpt lat="59.9736144" lon="17.7474979">
        <ele>37.6287</ele>
        <time>2012-02-29T15:37:25Z</time>
      </trkpt>
      <trkpt lat="59.9735425" lon="17.7475646">
        <ele>37.1481</ele>
        <time>2012-02-29T15:37:30Z</time>
      </trkpt>
      <trkpt lat="59.9734908" lon="17.747607">
        <ele>37.1481</ele>
        <time>2012-02-29T15:37:33Z</time>
      </trkpt>
      <trkpt lat="59.973384" lon="17.7477072">
        <ele>39.5513</ele>
        <time>2012-02-29T15:37:39Z</time>
      </trkpt>
      <trkpt lat="59.9733069" lon="17.7477735">
        <ele>39.5513</ele>
        <time>2012-02-29T15:37:45Z</time>
      </trkpt>
      <trkpt lat="59.973243" lon="17.7478596">
        <ele>40.5128</ele>
        <time>2012-02-29T15:37:49Z</time>
      </trkpt>
      <trkpt lat="59.9731779" lon="17.7479258">
        <ele>39.0707</ele>
        <time>2012-02-29T15:37:54Z</time>
      </trkpt>
      <trkpt lat="59.973082" lon="17.7480398">
        <ele>36.1868</ele>
        <time>2012-02-29T15:38:00Z</time>
      </trkpt>
      <trkpt lat="59.9730354" lon="17.7480958">
        <ele>34.7449</ele>
        <time>2012-02-29T15:38:04Z</time>
      </trkpt>
      <trkpt lat="59.9729656" lon="17.7481657">
        <ele>32.3416</ele>
        <time>2012-02-29T15:38:09Z</time>
      </trkpt>
      <trkpt lat="59.9729054" lon="17.7482101">
        <ele>30.4188</ele>
        <time>2012-02-29T15:38:13Z</time>
      </trkpt>
      <trkpt lat="59.9728464" lon="17.7483048">
        <ele>31.3801</ele>
        <time>2012-02-29T15:38:17Z</time>
      </trkpt>
      <trkpt lat="59.9727754" lon="17.7484512">
        <ele>35.7061</ele>
        <time>2012-02-29T15:38:22Z</time>
      </trkpt>
      <trkpt lat="59.972765" lon="17.7484738">
        <ele>35.7061</ele>
        <time>2012-02-29T15:38:23Z</time>
      </trkpt>
      <trkpt lat="59.97274" lon="17.7485807">
        <ele>36.6675</ele>
        <time>2012-02-29T15:38:28Z</time>
      </trkpt>
      <trkpt lat="59.972748" lon="17.748679">
        <ele>34.7449</ele>
        <time>2012-02-29T15:38:33Z</time>
      </trkpt>
      <trkpt lat="59.972706" lon="17.7487561">
        <ele>34.7449</ele>
        <time>2012-02-29T15:38:37Z</time>
      </trkpt>
      <trkpt lat="59.9726403" lon="17.748877">
        <ele>33.3029</ele>
        <time>2012-02-29T15:38:43Z</time>
      </trkpt>
      <trkpt lat="59.9726297" lon="17.7488962">
        <ele>32.3416</ele>
        <time>2012-02-29T15:38:44Z</time>
      </trkpt>
      <trkpt lat="59.9725392" lon="17.7490464">
        <ele>30.8995</ele>
        <time>2012-02-29T15:38:51Z</time>
      </trkpt>
      <trkpt lat="59.9725091" lon="17.749107">
        <ele>31.8607</ele>
        <time>2012-02-29T15:38:54Z</time>
      </trkpt>
      <trkpt lat="59.9724361" lon="17.7492748">
        <ele>31.3801</ele>
        <time>2012-02-29T15:39:01Z</time>
      </trkpt>
      <trkpt lat="59.9723609" lon="17.7494369">
        <ele>32.3416</ele>
        <time>2012-02-29T15:39:08Z</time>
      </trkpt>
      <trkpt lat="59.9723347" lon="17.7495338">
        <ele>30.8995</ele>
        <time>2012-02-29T15:39:12Z</time>
      </trkpt>
      <trkpt lat="59.9722898" lon="17.7496388">
        <ele>30.4188</ele>
        <time>2012-02-29T15:39:17Z</time>
      </trkpt>
      <trkpt lat="59.9722347" lon="17.7497754">
        <ele>29.9381</ele>
        <time>2012-02-29T15:39:22Z</time>
      </trkpt>
      <trkpt lat="59.9722103" lon="17.7498894">
        <ele>31.3801</ele>
        <time>2012-02-29T15:39:27Z</time>
      </trkpt>
      <trkpt lat="59.9721932" lon="17.7499527">
        <ele>32.8223</ele>
        <time>2012-02-29T15:39:29Z</time>
      </trkpt>
      <trkpt lat="59.9721687" lon="17.750001">
        <ele>32.3416</ele>
        <time>2012-02-29T15:39:31Z</time>
      </trkpt>
      <trkpt lat="59.9720658" lon="17.750136">
        <ele>32.8223</ele>
        <time>2012-02-29T15:39:38Z</time>
      </trkpt>
      <trkpt lat="59.9719884" lon="17.7502764">
        <ele>32.3416</ele>
        <time>2012-02-29T15:39:44Z</time>
      </trkpt>
      <trkpt lat="59.9719196" lon="17.7504431">
        <ele>30.4188</ele>
        <time>2012-02-29T15:39:50Z</time>
      </trkpt>
      <trkpt lat="59.9718493" lon="17.7505796">
        <ele>29.4575</ele>
        <time>2012-02-29T15:39:56Z</time>
      </trkpt>
      <trkpt lat="59.9717834" lon="17.7506924">
        <ele>29.9381</ele>
        <time>2012-02-29T15:40:01Z</time>
      </trkpt>
      <trkpt lat="59.9717689" lon="17.7507053">
        <ele>30.8995</ele>
        <time>2012-02-29T15:40:02Z</time>
      </trkpt>
      <trkpt lat="59.9717371" lon="17.7507645">
        <ele>32.8223</ele>
        <time>2012-02-29T15:40:06Z</time>
      </trkpt>
      <trkpt lat="59.9716879" lon="17.75085">
        <ele>33.7834</ele>
        <time>2012-02-29T15:40:11Z</time>
      </trkpt>
      <trkpt lat="59.9716264" lon="17.7509515">
        <ele>33.7834</ele>
        <time>2012-02-29T15:40:16Z</time>
      </trkpt>
      <trkpt lat="59.9715669" lon="17.7510458">
        <ele>32.8223</ele>
        <time>2012-02-29T15:40:20Z</time>
      </trkpt>
      <trkpt lat="59.9714905" lon="17.7511391">
        <ele>31.3801</ele>
        <time>2012-02-29T15:40:25Z</time>
      </trkpt>
      <trkpt lat="59.971446" lon="17.751182">
        <ele>28.9769</ele>
        <time>2012-02-29T15:40:29Z</time>
      </trkpt>
      <trkpt lat="59.9713668" lon="17.7512384">
        <ele>28.4962</ele>
        <time>2012-02-29T15:40:34Z</time>
      </trkpt>
      <trkpt lat="59.9713092" lon="17.7513398">
        <ele>26.5736</ele>
        <time>2012-02-29T15:40:38Z</time>
      </trkpt>
      <trkpt lat="59.9712681" lon="17.7514269">
        <ele>25.6123</ele>
        <time>2012-02-29T15:40:42Z</time>
      </trkpt>
      <trkpt lat="59.9712229" lon="17.7514669">
        <ele>25.6123</ele>
        <time>2012-02-29T15:40:46Z</time>
      </trkpt>
      <trkpt lat="59.9711518" lon="17.7515214">
        <ele>27.0543</ele>
        <time>2012-02-29T15:40:50Z</time>
      </trkpt>
      <trkpt lat="59.9711065" lon="17.7515602">
        <ele>26.5736</ele>
        <time>2012-02-29T15:40:52Z</time>
      </trkpt>
      <trkpt lat="59.9710546" lon="17.7516441">
        <ele>28.4962</ele>
        <time>2012-02-29T15:40:56Z</time>
      </trkpt>
      <trkpt lat="59.971" lon="17.7517763">
        <ele>29.9381</ele>
        <time>2012-02-29T15:41:02Z</time>
      </trkpt>
      <trkpt lat="59.9709328" lon="17.7518544">
        <ele>33.3029</ele>
        <time>2012-02-29T15:41:07Z</time>
      </trkpt>
      <trkpt lat="59.9708819" lon="17.7519201">
        <ele>34.7449</ele>
        <time>2012-02-29T15:41:11Z</time>
      </trkpt>
      <trkpt lat="59.970791" lon="17.7520704">
        <ele>35.7061</ele>
        <time>2012-02-29T15:41:15Z</time>
      </trkpt>
      <trkpt lat="59.9707156" lon="17.752201">
        <ele>35.2255</ele>
        <time>2012-02-29T15:41:21Z</time>
      </trkpt>
      <trkpt lat="59.970668" lon="17.752336">
        <ele>35.7061</ele>
        <time>2012-02-29T15:41:27Z</time>
      </trkpt>
      <trkpt lat="59.9706504" lon="17.7523787">
        <ele>36.6675</ele>
        <time>2012-02-29T15:41:29Z</time>
      </trkpt>
      <trkpt lat="59.9706297" lon="17.7524585">
        <ele>35.2255</ele>
        <time>2012-02-29T15:41:33Z</time>
      </trkpt>
      <trkpt lat="59.9706133" lon="17.7525543">
        <ele>34.2642</ele>
        <time>2012-02-29T15:41:39Z</time>
      </trkpt>
      <trkpt lat="59.9705866" lon="17.7526449">
        <ele>34.2642</ele>
        <time>2012-02-29T15:41:43Z</time>
      </trkpt>
      <trkpt lat="59.9704975" lon="17.7527864">
        <ele>32.8223</ele>
        <time>2012-02-29T15:41:49Z</time>
      </trkpt>
      <trkpt lat="59.970412" lon="17.7529537">
        <ele>29.9381</ele>
        <time>2012-02-29T15:41:55Z</time>
      </trkpt>
      <trkpt lat="59.9703419" lon="17.7530894">
        <ele>29.9381</ele>
        <time>2012-02-29T15:42:01Z</time>
      </trkpt>
      <trkpt lat="59.970282" lon="17.7532622">
        <ele>27.5349</ele>
        <time>2012-02-29T15:42:07Z</time>
      </trkpt>
      <trkpt lat="59.9702225" lon="17.7533934">
        <ele>27.0543</ele>
        <time>2012-02-29T15:42:12Z</time>
      </trkpt>
      <trkpt lat="59.9701652" lon="17.7535023">
        <ele>27.0543</ele>
        <time>2012-02-29T15:42:16Z</time>
      </trkpt>
      <trkpt lat="59.970119" lon="17.7536633">
        <ele>26.5736</ele>
        <time>2012-02-29T15:42:22Z</time>
      </trkpt>
      <trkpt lat="59.9700618" lon="17.75379">
        <ele>25.6123</ele>
        <time>2012-02-29T15:42:27Z</time>
      </trkpt>
      <trkpt lat="59.9700197" lon="17.7539174">
        <ele>26.0929</ele>
        <time>2012-02-29T15:42:32Z</time>
      </trkpt>
      <trkpt lat="59.9699299" lon="17.7540995">
        <ele>28.9769</ele>
        <time>2012-02-29T15:42:39Z</time>
      </trkpt>
      <trkpt lat="59.9698756" lon="17.7542123">
        <ele>29.9381</ele>
        <time>2012-02-29T15:42:44Z</time>
      </trkpt>
      <trkpt lat="59.9698428" lon="17.7543606">
        <ele>30.4188</ele>
        <time>2012-02-29T15:42:51Z</time>
      </trkpt>
      <trkpt lat="59.969792" lon="17.7544761">
        <ele>28.4962</ele>
        <time>2012-02-29T15:42:56Z</time>
      </trkpt>
      <trkpt lat="59.9697658" lon="17.7545521">
        <ele>28.9769</ele>
        <time>2012-02-29T15:42:59Z</time>
      </trkpt>
      <trkpt lat="59.969719" lon="17.7546624">
        <ele>27.0543</ele>
        <time>2012-02-29T15:43:04Z</time>
      </trkpt>
      <trkpt lat="59.9696697" lon="17.7547594">
        <ele>26.5736</ele>
        <time>2012-02-29T15:43:08Z</time>
      </trkpt>
      <trkpt lat="59.9696315" lon="17.7548889">
        <ele>26.0929</ele>
        <time>2012-02-29T15:43:13Z</time>
      </trkpt>
      <trkpt lat="59.9695785" lon="17.754978">
        <ele>26.0929</ele>
        <time>2012-02-29T15:43:17Z</time>
      </trkpt>
      <trkpt lat="59.9695321" lon="17.7550681">
        <ele>26.0929</ele>
        <time>2012-02-29T15:43:21Z</time>
      </trkpt>
      <trkpt lat="59.969503" lon="17.7551521">
        <ele>26.0929</ele>
        <time>2012-02-29T15:43:25Z</time>
      </trkpt>
      <trkpt lat="59.9694491" lon="17.7552654">
        <ele>26.0929</ele>
        <time>2012-02-29T15:43:30Z</time>
      </trkpt>
      <trkpt lat="59.9693995" lon="17.7553686">
        <ele>26.5736</ele>
        <time>2012-02-29T15:43:35Z</time>
      </trkpt>
      <trkpt lat="59.9693393" lon="17.755493">
        <ele>28.0155</ele>
        <time>2012-02-29T15:43:40Z</time>
      </trkpt>
      <trkpt lat="59.9692804" lon="17.7556577">
        <ele>28.4962</ele>
        <time>2012-02-29T15:43:47Z</time>
      </trkpt>
      <trkpt lat="59.9691912" lon="17.7558809">
        <ele>28.4962</ele>
        <time>2012-02-29T15:43:56Z</time>
      </trkpt>
      <trkpt lat="59.9691299" lon="17.7560026">
        <ele>28.9769</ele>
        <time>2012-02-29T15:44:01Z</time>
      </trkpt>
      <trkpt lat="59.969098" lon="17.7560913">
        <ele>28.0155</ele>
        <time>2012-02-29T15:44:05Z</time>
      </trkpt>
      <trkpt lat="59.9690144" lon="17.7562242">
        <ele>27.5349</ele>
        <time>2012-02-29T15:44:11Z</time>
      </trkpt>
      <trkpt lat="59.9689559" lon="17.7563039">
        <ele>26.5736</ele>
        <time>2012-02-29T15:44:15Z</time>
      </trkpt>
      <trkpt lat="59.9689417" lon="17.7563169">
        <ele>26.0929</ele>
        <time>2012-02-29T15:44:16Z</time>
      </trkpt>
      <trkpt lat="59.9689077" lon="17.75626">
        <ele>25.1317</ele>
        <time>2012-02-29T15:44:19Z</time>
      </trkpt>
      <trkpt lat="59.9689131" lon="17.7562265">
        <ele>25.1317</ele>
        <time>2012-02-29T15:44:20Z</time>
      </trkpt>
      <trkpt lat="59.968955" lon="17.7561053">
        <ele>25.6123</ele>
        <time>2012-02-29T15:44:25Z</time>
      </trkpt>
      <trkpt lat="59.9690253" lon="17.7559234">
        <ele>27.5349</ele>
        <time>2012-02-29T15:44:33Z</time>
      </trkpt>
      <trkpt lat="59.9690974" lon="17.7557263">
        <ele>28.9769</ele>
        <time>2012-02-29T15:44:41Z</time>
      </trkpt>
      <trkpt lat="59.9691757" lon="17.7554953">
        <ele>30.4188</ele>
        <time>2012-02-29T15:44:50Z</time>
      </trkpt>
      <trkpt lat="59.9692318" lon="17.7553291">
        <ele>31.8607</ele>
        <time>2012-02-29T15:44:56Z</time>
      </trkpt>
      <trkpt lat="59.9693156" lon="17.7551514">
        <ele>30.8995</ele>
        <time>2012-02-29T15:45:04Z</time>
      </trkpt>
      <trkpt lat="59.9693912" lon="17.7549947">
        <ele>31.3801</ele>
        <time>2012-02-29T15:45:11Z</time>
      </trkpt>
      <trkpt lat="59.9694962" lon="17.7547796">
        <ele>31.3801</ele>
        <time>2012-02-29T15:45:21Z</time>
      </trkpt>
      <trkpt lat="59.9695787" lon="17.754606">
        <ele>31.3801</ele>
        <time>2012-02-29T15:45:29Z</time>
      </trkpt>
      <trkpt lat="59.9696573" lon="17.7544424">
        <ele>31.3801</ele>
        <time>2012-02-29T15:45:36Z</time>
      </trkpt>
      <trkpt lat="59.9697549" lon="17.7542712">
        <ele>30.4188</ele>
        <time>2012-02-29T15:45:44Z</time>
      </trkpt>
      <trkpt lat="59.9698802" lon="17.7540534">
        <ele>28.9769</ele>
        <time>2012-02-29T15:45:54Z</time>
      </trkpt>
      <trkpt lat="59.969975" lon="17.7538445">
        <ele>28.4962</ele>
        <time>2012-02-29T15:46:03Z</time>
      </trkpt>
      <trkpt lat="59.9700482" lon="17.753684">
        <ele>28.4962</ele>
        <time>2012-02-29T15:46:10Z</time>
      </trkpt>
      <trkpt lat="59.970119" lon="17.7535049">
        <ele>28.9769</ele>
        <time>2012-02-29T15:46:17Z</time>
      </trkpt>
      <trkpt lat="59.9702025" lon="17.7532778">
        <ele>28.0155</ele>
        <time>2012-02-29T15:46:26Z</time>
      </trkpt>
      <trkpt lat="59.9702734" lon="17.7530185">
        <ele>28.9769</ele>
        <time>2012-02-29T15:46:35Z</time>
      </trkpt>
      <trkpt lat="59.9703536" lon="17.7528152">
        <ele>28.9769</ele>
        <time>2012-02-29T15:46:43Z</time>
      </trkpt>
      <trkpt lat="59.9704136" lon="17.7526799">
        <ele>28.4962</ele>
        <time>2012-02-29T15:46:49Z</time>
      </trkpt>
      <trkpt lat="59.9704991" lon="17.75245">
        <ele>28.9769</ele>
        <time>2012-02-29T15:46:58Z</time>
      </trkpt>
      <trkpt lat="59.9705602" lon="17.752309">
        <ele>28.9769</ele>
        <time>2012-02-29T15:47:04Z</time>
      </trkpt>
      <trkpt lat="59.9706289" lon="17.752187">
        <ele>28.9769</ele>
        <time>2012-02-29T15:47:10Z</time>
      </trkpt>
      <trkpt lat="59.9707319" lon="17.7519886">
        <ele>29.4575</ele>
        <time>2012-02-29T15:47:19Z</time>
      </trkpt>
      <trkpt lat="59.9707712" lon="17.7519285">
        <ele>29.4575</ele>
        <time>2012-02-29T15:47:22Z</time>
      </trkpt>
      <trkpt lat="59.9708546" lon="17.7517918">
        <ele>28.9769</ele>
        <time>2012-02-29T15:47:29Z</time>
      </trkpt>
      <trkpt lat="59.9709595" lon="17.7516392">
        <ele>29.9381</ele>
        <time>2012-02-29T15:47:37Z</time>
      </trkpt>
      <trkpt lat="59.9710602" lon="17.7514652">
        <ele>31.8607</ele>
        <time>2012-02-29T15:47:45Z</time>
      </trkpt>
      <trkpt lat="59.9711621" lon="17.7513784">
        <ele>31.3801</ele>
        <time>2012-02-29T15:47:51Z</time>
      </trkpt>
      <trkpt lat="59.9712696" lon="17.7512732">
        <ele>29.4575</ele>
        <time>2012-02-29T15:47:59Z</time>
      </trkpt>
      <trkpt lat="59.9713651" lon="17.7511908">
        <ele>28.9769</ele>
        <time>2012-02-29T15:48:06Z</time>
      </trkpt>
      <trkpt lat="59.971469" lon="17.7510685">
        <ele>28.4962</ele>
        <time>2012-02-29T15:48:14Z</time>
      </trkpt>
      <trkpt lat="59.9715922" lon="17.7509417">
        <ele>27.5349</ele>
        <time>2012-02-29T15:48:22Z</time>
      </trkpt>
      <trkpt lat="59.9716518" lon="17.7508306">
        <ele>27.5349</ele>
        <time>2012-02-29T15:48:27Z</time>
      </trkpt>
      <trkpt lat="59.9717833" lon="17.7506454">
        <ele>26.5736</ele>
        <time>2012-02-29T15:48:37Z</time>
      </trkpt>
      <trkpt lat="59.971873" lon="17.750511">
        <ele>25.6123</ele>
        <time>2012-02-29T15:48:44Z</time>
      </trkpt>
      <trkpt lat="59.9719345" lon="17.7503554">
        <ele>27.0543</ele>
        <time>2012-02-29T15:48:50Z</time>
      </trkpt>
      <trkpt lat="59.9720009" lon="17.750093">
        <ele>33.3029</ele>
        <time>2012-02-29T15:48:58Z</time>
      </trkpt>
      <trkpt lat="59.9720491" lon="17.7499879">
        <ele>35.7061</ele>
        <time>2012-02-29T15:49:02Z</time>
      </trkpt>
      <trkpt lat="59.9720713" lon="17.7499386">
        <ele>35.2255</ele>
        <time>2012-02-29T15:49:04Z</time>
      </trkpt>
      <trkpt lat="59.9721211" lon="17.7498351">
        <ele>34.2642</ele>
        <time>2012-02-29T15:49:08Z</time>
      </trkpt>
      <trkpt lat="59.9721603" lon="17.7497586">
        <ele>30.8995</ele>
        <time>2012-02-29T15:49:12Z</time>
      </trkpt>
      <trkpt lat="59.9722031" lon="17.749715">
        <ele>28.4962</ele>
        <time>2012-02-29T15:49:15Z</time>
      </trkpt>
      <trkpt lat="59.9723048" lon="17.7495502">
        <ele>28.9769</ele>
        <time>2012-02-29T15:49:22Z</time>
      </trkpt>
      <trkpt lat="59.9723516" lon="17.7494493">
        <ele>29.4575</ele>
        <time>2012-02-29T15:49:26Z</time>
      </trkpt>
      <trkpt lat="59.9724165" lon="17.7493444">
        <ele>27.0543</ele>
        <time>2012-02-29T15:49:31Z</time>
      </trkpt>
      <trkpt lat="59.9724815" lon="17.7492063">
        <ele>24.1703</ele>
        <time>2012-02-29T15:49:38Z</time>
      </trkpt>
      <trkpt lat="59.9725182" lon="17.7491422">
        <ele>23.209</ele>
        <time>2012-02-29T15:49:41Z</time>
      </trkpt>
      <trkpt lat="59.9725768" lon="17.7489794">
        <ele>24.1703</ele>
        <time>2012-02-29T15:49:47Z</time>
      </trkpt>
      <trkpt lat="59.972633" lon="17.7487469">
        <ele>27.5349</ele>
        <time>2012-02-29T15:49:55Z</time>
      </trkpt>
      <trkpt lat="59.9726607" lon="17.748651">
        <ele>30.8995</ele>
        <time>2012-02-29T15:49:59Z</time>
      </trkpt>
      <trkpt lat="59.9727318" lon="17.7484506">
        <ele>31.3801</ele>
        <time>2012-02-29T15:50:07Z</time>
      </trkpt>
      <trkpt lat="59.9728347" lon="17.7482851">
        <ele>30.8995</ele>
        <time>2012-02-29T15:50:14Z</time>
      </trkpt>
      <trkpt lat="59.9729125" lon="17.748166">
        <ele>28.0155</ele>
        <time>2012-02-29T15:50:21Z</time>
      </trkpt>
      <trkpt lat="59.9730327" lon="17.7480253">
        <ele>26.5736</ele>
        <time>2012-02-29T15:50:30Z</time>
      </trkpt>
      <trkpt lat="59.9731709" lon="17.7478646">
        <ele>26.5736</ele>
        <time>2012-02-29T15:50:40Z</time>
      </trkpt>
      <trkpt lat="59.9732561" lon="17.747756">
        <ele>28.9769</ele>
        <time>2012-02-29T15:50:47Z</time>
      </trkpt>
      <trkpt lat="59.9733662" lon="17.7476466">
        <ele>29.9381</ele>
        <time>2012-02-29T15:50:55Z</time>
      </trkpt>
      <trkpt lat="59.9734776" lon="17.7475341">
        <ele>30.8995</ele>
        <time>2012-02-29T15:51:03Z</time>
      </trkpt>
      <trkpt lat="59.9735628" lon="17.7474284">
        <ele>31.3801</ele>
        <time>2012-02-29T15:51:10Z</time>
      </trkpt>
      <trkpt lat="59.9735843" lon="17.7473389">
        <ele>35.2255</ele>
        <time>2012-02-29T15:51:13Z</time>
      </trkpt>
      <trkpt lat="59.9736591" lon="17.7472286">
        <ele>34.7449</ele>
        <time>2012-02-29T15:51:19Z</time>
      </trkpt>
      <trkpt lat="59.9736828" lon="17.7471124">
        <ele>39.5513</ele>
        <time>2012-02-29T15:51:23Z</time>
      </trkpt>
      <trkpt lat="59.9737996" lon="17.7470292">
        <ele>39.5513</ele>
        <time>2012-02-29T15:51:31Z</time>
      </trkpt>
      <trkpt lat="59.9738311" lon="17.7469996">
        <ele>39.0707</ele>
        <time>2012-02-29T15:51:33Z</time>
      </trkpt>
      <trkpt lat="59.9739692" lon="17.7468447">
        <ele>35.7061</ele>
        <time>2012-02-29T15:51:43Z</time>
      </trkpt>
      <trkpt lat="59.9740873" lon="17.7467146">
        <ele>33.3029</ele>
        <time>2012-02-29T15:51:51Z</time>
      </trkpt>
      <trkpt lat="59.9741901" lon="17.7465888">
        <ele>32.8223</ele>
        <time>2012-02-29T15:51:59Z</time>
      </trkpt>
      <trkpt lat="59.9742973" lon="17.746449">
        <ele>32.8223</ele>
        <time>2012-02-29T15:52:07Z</time>
      </trkpt>
      <trkpt lat="59.9743951" lon="17.7463087">
        <ele>31.8607</ele>
        <time>2012-02-29T15:52:15Z</time>
      </trkpt>
      <trkpt lat="59.974407" lon="17.7462946">
        <ele>31.8607</ele>
        <time>2012-02-29T15:52:16Z</time>
      </trkpt>
      <trkpt lat="59.9744799" lon="17.746191">
        <ele>30.8995</ele>
        <time>2012-02-29T15:52:22Z</time>
      </trkpt>
      <trkpt lat="59.9745077" lon="17.7461598">
        <ele>30.4188</ele>
        <time>2012-02-29T15:52:24Z</time>
      </trkpt>
      <trkpt lat="59.9746247" lon="17.7459869">
        <ele>29.4575</ele>
        <time>2012-02-29T15:52:33Z</time>
      </trkpt>
      <trkpt lat="59.974693" lon="17.7458394">
        <ele>29.9381</ele>
        <time>2012-02-29T15:52:39Z</time>
      </trkpt>
      <trkpt lat="59.9747801" lon="17.7456396">
        <ele>30.8995</ele>
        <time>2012-02-29T15:52:47Z</time>
      </trkpt>
      <trkpt lat="59.9748479" lon="17.7454775">
        <ele>29.9381</ele>
        <time>2012-02-29T15:52:53Z</time>
      </trkpt>
      <trkpt lat="59.9749405" lon="17.7452292">
        <ele>30.4188</ele>
        <time>2012-02-29T15:53:02Z</time>
      </trkpt>
      <trkpt lat="59.9750241" lon="17.7449846">
        <ele>29.9381</ele>
        <time>2012-02-29T15:53:11Z</time>
      </trkpt>
      <trkpt lat="59.9751083" lon="17.7447075">
        <ele>29.9381</ele>
        <time>2012-02-29T15:53:21Z</time>
      </trkpt>
      <trkpt lat="59.9751732" lon="17.7444431">
        <ele>30.4188</ele>
        <time>2012-02-29T15:53:30Z</time>
      </trkpt>
      <trkpt lat="59.975239" lon="17.7441065">
        <ele>31.3801</ele>
        <time>2012-02-29T15:53:41Z</time>
      </trkpt>
      <trkpt lat="59.9752656" lon="17.7439502">
        <ele>31.8607</ele>
        <time>2012-02-29T15:53:46Z</time>
      </trkpt>
      <trkpt lat="59.9752793" lon="17.7437931">
        <ele>33.3029</ele>
        <time>2012-02-29T15:53:51Z</time>
      </trkpt>
      <trkpt lat="59.9753394" lon="17.7434523">
        <ele>34.2642</ele>
        <time>2012-02-29T15:54:02Z</time>
      </trkpt>
      <trkpt lat="59.9754027" lon="17.7431875">
        <ele>33.7834</ele>
        <time>2012-02-29T15:54:11Z</time>
      </trkpt>
      <trkpt lat="59.975499" lon="17.7428131">
        <ele>34.2642</ele>
        <time>2012-02-29T15:54:24Z</time>
      </trkpt>
      <trkpt lat="59.9755757" lon="17.7425375">
        <ele>33.7834</ele>
        <time>2012-02-29T15:54:34Z</time>
      </trkpt>
      <trkpt lat="59.9756457" lon="17.7422894">
        <ele>33.3029</ele>
        <time>2012-02-29T15:54:43Z</time>
      </trkpt>
      <trkpt lat="59.975695" lon="17.7421283">
        <ele>32.3416</ele>
        <time>2012-02-29T15:54:49Z</time>
      </trkpt>
      <trkpt lat="59.975767" lon="17.741825">
        <ele>31.8607</ele>
        <time>2012-02-29T15:55:00Z</time>
      </trkpt>
      <trkpt lat="59.9758119" lon="17.741635">
        <ele>31.3801</ele>
        <time>2012-02-29T15:55:07Z</time>
      </trkpt>
      <trkpt lat="59.9758726" lon="17.7414026">
        <ele>30.4188</ele>
        <time>2012-02-29T15:55:15Z</time>
      </trkpt>
      <trkpt lat="59.9758796" lon="17.7413746">
        <ele>30.4188</ele>
        <time>2012-02-29T15:55:16Z</time>
      </trkpt>
      <trkpt lat="59.9759176" lon="17.7412501">
        <ele>28.4962</ele>
        <time>2012-02-29T15:55:21Z</time>
      </trkpt>
      <trkpt lat="59.9759827" lon="17.7410185">
        <ele>29.9381</ele>
        <time>2012-02-29T15:55:29Z</time>
      </trkpt>
      <trkpt lat="59.9760098" lon="17.7409066">
        <ele>29.9381</ele>
        <time>2012-02-29T15:55:33Z</time>
      </trkpt>
      <trkpt lat="59.9760642" lon="17.7407373">
        <ele>29.9381</ele>
        <time>2012-02-29T15:55:39Z</time>
      </trkpt>
      <trkpt lat="59.9761175" lon="17.7405867">
        <ele>28.9769</ele>
        <time>2012-02-29T15:55:45Z</time>
      </trkpt>
      <trkpt lat="59.976161" lon="17.7404592">
        <ele>28.4962</ele>
        <time>2012-02-29T15:55:50Z</time>
      </trkpt>
      <trkpt lat="59.9762044" lon="17.7403354">
        <ele>27.5349</ele>
        <time>2012-02-29T15:55:55Z</time>
      </trkpt>
      <trkpt lat="59.976273" lon="17.7401125">
        <ele>26.5736</ele>
        <time>2012-02-29T15:56:03Z</time>
      </trkpt>
      <trkpt lat="59.976279" lon="17.740047">
        <ele>26.0929</ele>
        <time>2012-02-29T15:56:05Z</time>
      </trkpt>
      <trkpt lat="59.9762225" lon="17.7398418">
        <ele>28.4962</ele>
        <time>2012-02-29T15:56:11Z</time>
      </trkpt>
      <trkpt lat="59.9761951" lon="17.7397831">
        <ele>28.4962</ele>
        <time>2012-02-29T15:56:13Z</time>
      </trkpt>
      <trkpt lat="59.9760699" lon="17.7395962">
        <ele>28.4962</ele>
        <time>2012-02-29T15:56:19Z</time>
      </trkpt>
      <trkpt lat="59.9759988" lon="17.7394734">
        <ele>20.8057</ele>
        <time>2012-02-29T15:56:25Z</time>
      </trkpt>
      <trkpt lat="59.9759602" lon="17.7393751">
        <ele>15.999</ele>
        <time>2012-02-29T15:56:30Z</time>
      </trkpt>
      <trkpt lat="59.9758874" lon="17.7392978">
        <ele>13.1151</ele>
        <time>2012-02-29T15:56:36Z</time>
      </trkpt>
      <trkpt lat="59.9758661" lon="17.7392533">
        <ele>12.6344</ele>
        <time>2012-02-29T15:56:38Z</time>
      </trkpt>
      <trkpt lat="59.9757623" lon="17.7391409">
        <ele>11.1925</ele>
        <time>2012-02-29T15:56:45Z</time>
      </trkpt>
      <trkpt lat="59.9756903" lon="17.7390417">
        <ele>10.7118</ele>
        <time>2012-02-29T15:56:51Z</time>
      </trkpt>
      <trkpt lat="59.9755774" lon="17.7388803">
        <ele>11.6732</ele>
        <time>2012-02-29T15:56:59Z</time>
      </trkpt>
      <trkpt lat="59.9755022" lon="17.738739">
        <ele>12.1538</ele>
        <time>2012-02-29T15:57:05Z</time>
      </trkpt>
      <trkpt lat="59.9754239" lon="17.7386025">
        <ele>13.5958</ele>
        <time>2012-02-29T15:57:10Z</time>
      </trkpt>
      <trkpt lat="59.9753596" lon="17.7384764">
        <ele>13.5958</ele>
        <time>2012-02-29T15:57:15Z</time>
      </trkpt>
      <trkpt lat="59.9753219" lon="17.738316">
        <ele>11.1925</ele>
        <time>2012-02-29T15:57:21Z</time>
      </trkpt>
      <trkpt lat="59.9752534" lon="17.7382075">
        <ele>8.30859</ele>
        <time>2012-02-29T15:57:26Z</time>
      </trkpt>
      <trkpt lat="59.9751848" lon="17.7380985">
        <ele>4.94385</ele>
        <time>2012-02-29T15:57:31Z</time>
      </trkpt>
      <trkpt lat="59.97514" lon="17.7380254">
        <ele>4.94385</ele>
        <time>2012-02-29T15:57:35Z</time>
      </trkpt>
      <trkpt lat="59.9750583" lon="17.7379152">
        <ele>4.94385</ele>
        <time>2012-02-29T15:57:41Z</time>
      </trkpt>
      <trkpt lat="59.9749791" lon="17.7377801">
        <ele>5.90527</ele>
        <time>2012-02-29T15:57:47Z</time>
      </trkpt>
      <trkpt lat="59.9749008" lon="17.7376455">
        <ele>7.82788</ele>
        <time>2012-02-29T15:57:53Z</time>
      </trkpt>
      <trkpt lat="59.9748303" lon="17.737504">
        <ele>9.2699</ele>
        <time>2012-02-29T15:58:00Z</time>
      </trkpt>
      <trkpt lat="59.974762" lon="17.7373672">
        <ele>9.2699</ele>
        <time>2012-02-29T15:58:05Z</time>
      </trkpt>
      <trkpt lat="59.9747065" lon="17.7372511">
        <ele>10.2312</ele>
        <time>2012-02-29T15:58:10Z</time>
      </trkpt>
      <trkpt lat="59.9746261" lon="17.7370434">
        <ele>11.1925</ele>
        <time>2012-02-29T15:58:19Z</time>
      </trkpt>
      <trkpt lat="59.9745735" lon="17.7368514">
        <ele>12.6344</ele>
        <time>2012-02-29T15:58:26Z</time>
      </trkpt>
      <trkpt lat="59.9745167" lon="17.7366672">
        <ele>12.6344</ele>
        <time>2012-02-29T15:58:33Z</time>
      </trkpt>
      <trkpt lat="59.9745045" lon="17.7366093">
        <ele>12.6344</ele>
        <time>2012-02-29T15:58:35Z</time>
      </trkpt>
      <trkpt lat="59.9744744" lon="17.7365312">
        <ele>13.5958</ele>
        <time>2012-02-29T15:58:39Z</time>
      </trkpt>
      <trkpt lat="59.9744432" lon="17.7364119">
        <ele>14.0764</ele>
        <time>2012-02-29T15:58:43Z</time>
      </trkpt>
      <trkpt lat="59.9744227" lon="17.7363546">
        <ele>15.0377</ele>
        <time>2012-02-29T15:58:45Z</time>
      </trkpt>
      <trkpt lat="59.9743885" lon="17.7361763">
        <ele>15.999</ele>
        <time>2012-02-29T15:58:51Z</time>
      </trkpt>
      <trkpt lat="59.974364" lon="17.7360924">
        <ele>16.9604</ele>
        <time>2012-02-29T15:58:54Z</time>
      </trkpt>
      <trkpt lat="59.9743522" lon="17.7359276">
        <ele>17.4412</ele>
        <time>2012-02-29T15:59:00Z</time>
      </trkpt>
      <trkpt lat="59.9743388" lon="17.7357423">
        <ele>17.4412</ele>
        <time>2012-02-29T15:59:06Z</time>
      </trkpt>
      <trkpt lat="59.9743408" lon="17.7357106">
        <ele>16.9604</ele>
        <time>2012-02-29T15:59:07Z</time>
      </trkpt>
      <trkpt lat="59.974324" lon="17.7354589">
        <ele>16.4797</ele>
        <time>2012-02-29T15:59:15Z</time>
      </trkpt>
      <trkpt lat="59.9743127" lon="17.7352888">
        <ele>15.999</ele>
        <time>2012-02-29T15:59:20Z</time>
      </trkpt>
      <trkpt lat="59.9743062" lon="17.7350671">
        <ele>15.5184</ele>
        <time>2012-02-29T15:59:27Z</time>
      </trkpt>
      <trkpt lat="59.974287" lon="17.7348128">
        <ele>16.9604</ele>
        <time>2012-02-29T15:59:35Z</time>
      </trkpt>
      <trkpt lat="59.9742793" lon="17.7345836">
        <ele>19.3638</ele>
        <time>2012-02-29T15:59:42Z</time>
      </trkpt>
      <trkpt lat="59.9742834" lon="17.7343337">
        <ele>19.8444</ele>
        <time>2012-02-29T15:59:50Z</time>
      </trkpt>
      <trkpt lat="59.9742968" lon="17.7340115">
        <ele>20.325</ele>
        <time>2012-02-29T16:00:00Z</time>
      </trkpt>
      <trkpt lat="59.9743106" lon="17.7337168">
        <ele>21.2864</ele>
        <time>2012-02-29T16:00:09Z</time>
      </trkpt>
      <trkpt lat="59.9743227" lon="17.7335017">
        <ele>21.2864</ele>
        <time>2012-02-29T16:00:16Z</time>
      </trkpt>
      <trkpt lat="59.9743273" lon="17.7332781">
        <ele>21.767</ele>
        <time>2012-02-29T16:00:23Z</time>
      </trkpt>
      <trkpt lat="59.9743314" lon="17.7332043">
        <ele>21.767</ele>
        <time>2012-02-29T16:00:25Z</time>
      </trkpt>
      <trkpt lat="59.9743475" lon="17.7330459">
        <ele>20.325</ele>
        <time>2012-02-29T16:00:29Z</time>
      </trkpt>
      <trkpt lat="59.9743574" lon="17.7328891">
        <ele>19.3638</ele>
        <time>2012-02-29T16:00:35Z</time>
      </trkpt>
      <trkpt lat="59.9743475" lon="17.7326636">
        <ele>19.8444</ele>
        <time>2012-02-29T16:00:42Z</time>
      </trkpt>
      <trkpt lat="59.9743423" lon="17.7324394">
        <ele>20.325</ele>
        <time>2012-02-29T16:00:49Z</time>
      </trkpt>
      <trkpt lat="59.9743292" lon="17.7322362">
        <ele>21.767</ele>
        <time>2012-02-29T16:00:55Z</time>
      </trkpt>
      <trkpt lat="59.9743315" lon="17.732068">
        <ele>22.2476</ele>
        <time>2012-02-29T16:01:00Z</time>
      </trkpt>
      <trkpt lat="59.9743445" lon="17.7318189">
        <ele>22.2476</ele>
        <time>2012-02-29T16:01:08Z</time>
      </trkpt>
      <trkpt lat="59.9743449" lon="17.731666">
        <ele>23.209</ele>
        <time>2012-02-29T16:01:13Z</time>
      </trkpt>
      <trkpt lat="59.9743345" lon="17.7315518">
        <ele>25.1317</ele>
        <time>2012-02-29T16:01:17Z</time>
      </trkpt>
      <trkpt lat="59.9743299" lon="17.7313436">
        <ele>26.0929</ele>
        <time>2012-02-29T16:01:23Z</time>
      </trkpt>
      <trkpt lat="59.9743294" lon="17.7311799">
        <ele>27.0543</ele>
        <time>2012-02-29T16:01:28Z</time>
      </trkpt>
      <trkpt lat="59.9743427" lon="17.7309769">
        <ele>27.5349</ele>
        <time>2012-02-29T16:01:34Z</time>
      </trkpt>
      <trkpt lat="59.9743595" lon="17.7307533">
        <ele>26.5736</ele>
        <time>2012-02-29T16:01:41Z</time>
      </trkpt>
      <trkpt lat="59.9743667" lon="17.7306544">
        <ele>27.0543</ele>
        <time>2012-02-29T16:01:44Z</time>
      </trkpt>
      <trkpt lat="59.9743807" lon="17.7304637">
        <ele>26.5736</ele>
        <time>2012-02-29T16:01:50Z</time>
      </trkpt>
      <trkpt lat="59.9743962" lon="17.7302663">
        <ele>26.5736</ele>
        <time>2012-02-29T16:01:56Z</time>
      </trkpt>
      <trkpt lat="59.9744241" lon="17.7301187">
        <ele>25.1317</ele>
        <time>2012-02-29T16:02:01Z</time>
      </trkpt>
      <trkpt lat="59.9744473" lon="17.7299348">
        <ele>23.6896</ele>
        <time>2012-02-29T16:02:07Z</time>
      </trkpt>
      <trkpt lat="59.9744642" lon="17.7297259">
        <ele>22.2476</ele>
        <time>2012-02-29T16:02:14Z</time>
      </trkpt>
      <trkpt lat="59.9744748" lon="17.7295172">
        <ele>21.767</ele>
        <time>2012-02-29T16:02:21Z</time>
      </trkpt>
      <trkpt lat="59.9744803" lon="17.7293065">
        <ele>20.325</ele>
        <time>2012-02-29T16:02:28Z</time>
      </trkpt>
      <trkpt lat="59.9744742" lon="17.7291325">
        <ele>19.3638</ele>
        <time>2012-02-29T16:02:33Z</time>
      </trkpt>
      <trkpt lat="59.9744769" lon="17.728917">
        <ele>18.4023</ele>
        <time>2012-02-29T16:02:40Z</time>
      </trkpt>
      <trkpt lat="59.9744791" lon="17.728714">
        <ele>17.9218</ele>
        <time>2012-02-29T16:02:46Z</time>
      </trkpt>
      <trkpt lat="59.9744795" lon="17.728498">
        <ele>17.9218</ele>
        <time>2012-02-29T16:02:52Z</time>
      </trkpt>
      <trkpt lat="59.9744754" lon="17.7282362">
        <ele>16.9604</ele>
        <time>2012-02-29T16:03:00Z</time>
      </trkpt>
      <trkpt lat="59.9744787" lon="17.7281263">
        <ele>15.999</ele>
        <time>2012-02-29T16:03:04Z</time>
      </trkpt>
      <trkpt lat="59.9744755" lon="17.7279959">
        <ele>15.999</ele>
        <time>2012-02-29T16:03:08Z</time>
      </trkpt>
      <trkpt lat="59.9744629" lon="17.7277084">
        <ele>17.4412</ele>
        <time>2012-02-29T16:03:17Z</time>
      </trkpt>
      <trkpt lat="59.9744551" lon="17.7275063">
        <ele>16.9604</ele>
        <time>2012-02-29T16:03:24Z</time>
      </trkpt>
      <trkpt lat="59.9744454" lon="17.7273349">
        <ele>17.4412</ele>
        <time>2012-02-29T16:03:29Z</time>
      </trkpt>
      <trkpt lat="59.9744454" lon="17.7271532">
        <ele>15.0377</ele>
        <time>2012-02-29T16:03:35Z</time>
      </trkpt>
      <trkpt lat="59.974436" lon="17.7269976">
        <ele>14.0764</ele>
        <time>2012-02-29T16:03:40Z</time>
      </trkpt>
      <trkpt lat="59.9744243" lon="17.7268027">
        <ele>14.557</ele>
        <time>2012-02-29T16:03:46Z</time>
      </trkpt>
      <trkpt lat="59.9744287" lon="17.7266482">
        <ele>16.9604</ele>
        <time>2012-02-29T16:03:51Z</time>
      </trkpt>
      <trkpt lat="59.9744224" lon="17.7264608">
        <ele>18.4023</ele>
        <time>2012-02-29T16:03:57Z</time>
      </trkpt>
      <trkpt lat="59.9744137" lon="17.7263615">
        <ele>18.8831</ele>
        <time>2012-02-29T16:04:00Z</time>
      </trkpt>
      <trkpt lat="59.9743772" lon="17.7260941">
        <ele>20.325</ele>
        <time>2012-02-29T16:04:08Z</time>
      </trkpt>
      <trkpt lat="59.9743532" lon="17.7259512">
        <ele>20.325</ele>
        <time>2012-02-29T16:04:12Z</time>
      </trkpt>
      <trkpt lat="59.9743618" lon="17.7257936">
        <ele>19.8444</ele>
        <time>2012-02-29T16:04:17Z</time>
      </trkpt>
      <trkpt lat="59.9743486" lon="17.7256673">
        <ele>19.3638</ele>
        <time>2012-02-29T16:04:21Z</time>
      </trkpt>
      <trkpt lat="59.974337" lon="17.7254767">
        <ele>19.3638</ele>
        <time>2012-02-29T16:04:28Z</time>
      </trkpt>
      <trkpt lat="59.9743258" lon="17.725396">
        <ele>19.3638</ele>
        <time>2012-02-29T16:04:31Z</time>
      </trkpt>
      <trkpt lat="59.9743179" lon="17.7253068">
        <ele>19.8444</ele>
        <time>2012-02-29T16:04:34Z</time>
      </trkpt>
      <trkpt lat="59.974317" lon="17.7252845">
        <ele>19.8444</ele>
        <time>2012-02-29T16:04:35Z</time>
      </trkpt>
      <trkpt lat="59.9743687" lon="17.7252986">
        <ele>20.8057</ele>
        <time>2012-02-29T16:04:40Z</time>
      </trkpt>
      <trkpt lat="59.9743587" lon="17.7253581">
        <ele>23.6896</ele>
        <time>2012-02-29T16:04:52Z</time>
      </trkpt>
      <trkpt lat="59.9743632" lon="17.7253855">
        <ele>23.6896</ele>
        <time>2012-02-29T16:04:53Z</time>
      </trkpt>
      <trkpt lat="59.9743796" lon="17.7255039">
        <ele>24.1703</ele>
        <time>2012-02-29T16:04:57Z</time>
      </trkpt>
      <trkpt lat="59.9743841" lon="17.7256895">
        <ele>23.6896</ele>
        <time>2012-02-29T16:05:02Z</time>
      </trkpt>
      <trkpt lat="59.9743855" lon="17.7257807">
        <ele>22.7283</ele>
        <time>2012-02-29T16:05:05Z</time>
      </trkpt>
      <trkpt lat="59.9744066" lon="17.7258948">
        <ele>21.767</ele>
        <time>2012-02-29T16:05:09Z</time>
      </trkpt>
      <trkpt lat="59.9744314" lon="17.7260861">
        <ele>19.8444</ele>
        <time>2012-02-29T16:05:15Z</time>
      </trkpt>
      <trkpt lat="59.9744403" lon="17.7262336">
        <ele>18.4023</ele>
        <time>2012-02-29T16:05:20Z</time>
      </trkpt>
      <trkpt lat="59.9744634" lon="17.7264243">
        <ele>15.0377</ele>
        <time>2012-02-29T16:05:26Z</time>
      </trkpt>
      <trkpt lat="59.9744784" lon="17.7266003">
        <ele>13.1151</ele>
        <time>2012-02-29T16:05:32Z</time>
      </trkpt>
      <trkpt lat="59.9745232" lon="17.7267693">
        <ele>10.7118</ele>
        <time>2012-02-29T16:05:38Z</time>
      </trkpt>
      <trkpt lat="59.9745463" lon="17.7269107">
        <ele>9.2699</ele>
        <time>2012-02-29T16:05:43Z</time>
      </trkpt>
      <trkpt lat="59.9745511" lon="17.7271395">
        <ele>11.1925</ele>
        <time>2012-02-29T16:05:49Z</time>
      </trkpt>
      <trkpt lat="59.9745545" lon="17.727365">
        <ele>10.7118</ele>
        <time>2012-02-29T16:05:55Z</time>
      </trkpt>
      <trkpt lat="59.9745532" lon="17.7274748">
        <ele>8.78918</ele>
        <time>2012-02-29T16:05:59Z</time>
      </trkpt>
      <trkpt lat="59.9745464" lon="17.7275928">
        <ele>8.30859</ele>
        <time>2012-02-29T16:06:03Z</time>
      </trkpt>
      <trkpt lat="59.9745361" lon="17.727623">
        <ele>8.78918</ele>
        <time>2012-02-29T16:06:04Z</time>
      </trkpt>
      <trkpt lat="59.9745154" lon="17.7277933">
        <ele>9.75061</ele>
        <time>2012-02-29T16:06:10Z</time>
      </trkpt>
      <trkpt lat="59.9744946" lon="17.7279534">
        <ele>11.1925</ele>
        <time>2012-02-29T16:06:15Z</time>
      </trkpt>
      <trkpt lat="59.9744893" lon="17.7280856">
        <ele>12.6344</ele>
        <time>2012-02-29T16:06:19Z</time>
      </trkpt>
      <trkpt lat="59.9744911" lon="17.7282953">
        <ele>14.557</ele>
        <time>2012-02-29T16:06:25Z</time>
      </trkpt>
      <trkpt lat="59.9744913" lon="17.7283304">
        <ele>14.557</ele>
        <time>2012-02-29T16:06:26Z</time>
      </trkpt>
      <trkpt lat="59.9744962" lon="17.7285873">
        <ele>17.4412</ele>
        <time>2012-02-29T16:06:34Z</time>
      </trkpt>
      <trkpt lat="59.9744972" lon="17.7287817">
        <ele>18.4023</ele>
        <time>2012-02-29T16:06:40Z</time>
      </trkpt>
      <trkpt lat="59.9745105" lon="17.7288739">
        <ele>19.8444</ele>
        <time>2012-02-29T16:06:43Z</time>
      </trkpt>
      <trkpt lat="59.9745186" lon="17.7290991">
        <ele>21.2864</ele>
        <time>2012-02-29T16:06:50Z</time>
      </trkpt>
      <trkpt lat="59.9745235" lon="17.7292594">
        <ele>20.8057</ele>
        <time>2012-02-29T16:06:55Z</time>
      </trkpt>
      <trkpt lat="59.9745221" lon="17.7294467">
        <ele>21.767</ele>
        <time>2012-02-29T16:07:01Z</time>
      </trkpt>
      <trkpt lat="59.974505" lon="17.7296768">
        <ele>22.7283</ele>
        <time>2012-02-29T16:07:08Z</time>
      </trkpt>
      <trkpt lat="59.9744899" lon="17.7298566">
        <ele>22.2476</ele>
        <time>2012-02-29T16:07:14Z</time>
      </trkpt>
      <trkpt lat="59.9744768" lon="17.7300669">
        <ele>23.209</ele>
        <time>2012-02-29T16:07:21Z</time>
      </trkpt>
      <trkpt lat="59.9744641" lon="17.7303095">
        <ele>24.651</ele>
        <time>2012-02-29T16:07:29Z</time>
      </trkpt>
      <trkpt lat="59.9744416" lon="17.730508">
        <ele>25.6123</ele>
        <time>2012-02-29T16:07:35Z</time>
      </trkpt>
      <trkpt lat="59.9744081" lon="17.7308117">
        <ele>26.5736</ele>
        <time>2012-02-29T16:07:44Z</time>
      </trkpt>
      <trkpt lat="59.9743781" lon="17.7310921">
        <ele>25.6123</ele>
        <time>2012-02-29T16:07:53Z</time>
      </trkpt>
      <trkpt lat="59.974359" lon="17.7313179">
        <ele>24.651</ele>
        <time>2012-02-29T16:08:01Z</time>
      </trkpt>
      <trkpt lat="59.9743538" lon="17.7314056">
        <ele>24.651</ele>
        <time>2012-02-29T16:08:04Z</time>
      </trkpt>
      <trkpt lat="59.974352" lon="17.7315156">
        <ele>25.1317</ele>
        <time>2012-02-29T16:08:08Z</time>
      </trkpt>
      <trkpt lat="59.9743547" lon="17.7317602">
        <ele>24.651</ele>
        <time>2012-02-29T16:08:15Z</time>
      </trkpt>
      <trkpt lat="59.9743548" lon="17.7318229">
        <ele>24.651</ele>
        <time>2012-02-29T16:08:17Z</time>
      </trkpt>
      <trkpt lat="59.9743522" lon="17.7320412">
        <ele>24.1703</ele>
        <time>2012-02-29T16:08:24Z</time>
      </trkpt>
      <trkpt lat="59.9743413" lon="17.732256">
        <ele>22.7283</ele>
        <time>2012-02-29T16:08:31Z</time>
      </trkpt>
      <trkpt lat="59.9743448" lon="17.7324419">
        <ele>23.6896</ele>
        <time>2012-02-29T16:08:37Z</time>
      </trkpt>
      <trkpt lat="59.9743429" lon="17.7326787">
        <ele>22.7283</ele>
        <time>2012-02-29T16:08:44Z</time>
      </trkpt>
      <trkpt lat="59.9743382" lon="17.7328269">
        <ele>21.767</ele>
        <time>2012-02-29T16:08:48Z</time>
      </trkpt>
      <trkpt lat="59.9743382" lon="17.7329593">
        <ele>21.2864</ele>
        <time>2012-02-29T16:08:53Z</time>
      </trkpt>
      <trkpt lat="59.974338" lon="17.7331631">
        <ele>20.8057</ele>
        <time>2012-02-29T16:09:00Z</time>
      </trkpt>
      <trkpt lat="59.9743321" lon="17.7333468">
        <ele>20.325</ele>
        <time>2012-02-29T16:09:06Z</time>
      </trkpt>
      <trkpt lat="59.9743227" lon="17.7334681">
        <ele>20.8057</ele>
        <time>2012-02-29T16:09:10Z</time>
      </trkpt>
      <trkpt lat="59.9743039" lon="17.7336469">
        <ele>19.8444</ele>
        <time>2012-02-29T16:09:15Z</time>
      </trkpt>
      <trkpt lat="59.9742926" lon="17.7338204">
        <ele>19.3638</ele>
        <time>2012-02-29T16:09:20Z</time>
      </trkpt>
      <trkpt lat="59.9742854" lon="17.7339789">
        <ele>19.3638</ele>
        <time>2012-02-29T16:09:25Z</time>
      </trkpt>
      <trkpt lat="59.9742807" lon="17.7342286">
        <ele>19.8444</ele>
        <time>2012-02-29T16:09:32Z</time>
      </trkpt>
      <trkpt lat="59.9742771" lon="17.7343711">
        <ele>20.8057</ele>
        <time>2012-02-29T16:09:36Z</time>
      </trkpt>
      <trkpt lat="59.9742829" lon="17.7345419">
        <ele>22.2476</ele>
        <time>2012-02-29T16:09:42Z</time>
      </trkpt>
      <trkpt lat="59.9742816" lon="17.7346062">
        <ele>22.2476</ele>
        <time>2012-02-29T16:09:44Z</time>
      </trkpt>
      <trkpt lat="59.9743004" lon="17.7347078">
        <ele>24.1703</ele>
        <time>2012-02-29T16:09:48Z</time>
      </trkpt>
      <trkpt lat="59.9743062" lon="17.7348508">
        <ele>23.6896</ele>
        <time>2012-02-29T16:09:53Z</time>
      </trkpt>
      <trkpt lat="59.9743142" lon="17.7350156">
        <ele>22.7283</ele>
        <time>2012-02-29T16:09:59Z</time>
      </trkpt>
      <trkpt lat="59.9743283" lon="17.7350968">
        <ele>22.7283</ele>
        <time>2012-02-29T16:10:02Z</time>
      </trkpt>
      <trkpt lat="59.9743486" lon="17.7352629">
        <ele>22.7283</ele>
        <time>2012-02-29T16:10:08Z</time>
      </trkpt>
      <trkpt lat="59.9743767" lon="17.7354624">
        <ele>23.6896</ele>
        <time>2012-02-29T16:10:15Z</time>
      </trkpt>
      <trkpt lat="59.9744186" lon="17.7356956">
        <ele>24.651</ele>
        <time>2012-02-29T16:10:23Z</time>
      </trkpt>
      <trkpt lat="59.9744678" lon="17.735871">
        <ele>26.0929</ele>
        <time>2012-02-29T16:10:30Z</time>
      </trkpt>
      <trkpt lat="59.9745113" lon="17.7360282">
        <ele>28.0155</ele>
        <time>2012-02-29T16:10:36Z</time>
      </trkpt>
      <trkpt lat="59.9745728" lon="17.736227">
        <ele>28.0155</ele>
        <time>2012-02-29T16:10:44Z</time>
      </trkpt>
      <trkpt lat="59.9746317" lon="17.7364479">
        <ele>28.0155</ele>
        <time>2012-02-29T16:10:52Z</time>
      </trkpt>
      <trkpt lat="59.9746997" lon="17.7366654">
        <ele>26.5736</ele>
        <time>2012-02-29T16:11:00Z</time>
      </trkpt>
      <trkpt lat="59.9747755" lon="17.7368808">
        <ele>27.5349</ele>
        <time>2012-02-29T16:11:08Z</time>
      </trkpt>
      <trkpt lat="59.9748439" lon="17.7370198">
        <ele>28.4962</ele>
        <time>2012-02-29T16:11:14Z</time>
      </trkpt>
      <trkpt lat="59.9749042" lon="17.7371548">
        <ele>28.4962</ele>
        <time>2012-02-29T16:11:20Z</time>
      </trkpt>
      <trkpt lat="59.9749707" lon="17.7372843">
        <ele>29.4575</ele>
        <time>2012-02-29T16:11:26Z</time>
      </trkpt>
      <trkpt lat="59.9750463" lon="17.737433">
        <ele>30.8995</ele>
        <time>2012-02-29T16:11:32Z</time>
      </trkpt>
      <trkpt lat="59.9750575" lon="17.7374604">
        <ele>30.8995</ele>
        <time>2012-02-29T16:11:33Z</time>
      </trkpt>
      <trkpt lat="59.9750982" lon="17.7375511">
        <ele>30.4188</ele>
        <time>2012-02-29T16:11:37Z</time>
      </trkpt>
      <trkpt lat="59.9751614" lon="17.7377061">
        <ele>29.4575</ele>
        <time>2012-02-29T16:11:44Z</time>
      </trkpt>
      <trkpt lat="59.9752328" lon="17.7378587">
        <ele>28.9769</ele>
        <time>2012-02-29T16:11:51Z</time>
      </trkpt>
      <trkpt lat="59.9753333" lon="17.7380418">
        <ele>29.4575</ele>
        <time>2012-02-29T16:12:00Z</time>
      </trkpt>
      <trkpt lat="59.9754137" lon="17.7382074">
        <ele>28.9769</ele>
        <time>2012-02-29T16:12:08Z</time>
      </trkpt>
      <trkpt lat="59.9755289" lon="17.7384146">
        <ele>29.4575</ele>
        <time>2012-02-29T16:12:18Z</time>
      </trkpt>
      <trkpt lat="59.9756075" lon="17.7385115">
        <ele>31.3801</ele>
        <time>2012-02-29T16:12:24Z</time>
      </trkpt>
      <trkpt lat="59.9757343" lon="17.7386708">
        <ele>34.2642</ele>
        <time>2012-02-29T16:12:33Z</time>
      </trkpt>
      <trkpt lat="59.9758135" lon="17.7387975">
        <ele>36.6675</ele>
        <time>2012-02-29T16:12:39Z</time>
      </trkpt>
      <trkpt lat="59.9758943" lon="17.7389384">
        <ele>37.1481</ele>
        <time>2012-02-29T16:12:46Z</time>
      </trkpt>
      <trkpt lat="59.9759776" lon="17.7390824">
        <ele>36.6675</ele>
        <time>2012-02-29T16:12:53Z</time>
      </trkpt>
      <trkpt lat="59.9760144" lon="17.7391482">
        <ele>36.6675</ele>
        <time>2012-02-29T16:12:56Z</time>
      </trkpt>
      <trkpt lat="59.9760791" lon="17.7392495">
        <ele>35.7061</ele>
        <time>2012-02-29T16:13:01Z</time>
      </trkpt>
      <trkpt lat="59.9761539" lon="17.7393614">
        <ele>35.2255</ele>
        <time>2012-02-29T16:13:06Z</time>
      </trkpt>
      <trkpt lat="59.9762251" lon="17.739458">
        <ele>35.2255</ele>
        <time>2012-02-29T16:13:11Z</time>
      </trkpt>
      <trkpt lat="59.976302" lon="17.7395744">
        <ele>36.1868</ele>
        <time>2012-02-29T16:13:17Z</time>
      </trkpt>
      <trkpt lat="59.9763845" lon="17.7396597">
        <ele>37.1481</ele>
        <time>2012-02-29T16:13:22Z</time>
      </trkpt>
      <trkpt lat="59.9764599" lon="17.7396989">
        <ele>36.6675</ele>
        <time>2012-02-29T16:13:27Z</time>
      </trkpt>
      <trkpt lat="59.9764827" lon="17.7396926">
        <ele>36.6675</ele>
        <time>2012-02-29T16:13:29Z</time>
      </trkpt>
      <trkpt lat="59.9764957" lon="17.7395984">
        <ele>33.7834</ele>
        <time>2012-02-29T16:13:35Z</time>
      </trkpt>
      <trkpt lat="59.9765479" lon="17.7395105">
        <ele>32.3416</ele>
        <time>2012-02-29T16:13:41Z</time>
      </trkpt>
      <trkpt lat="59.9766184" lon="17.7394445">
        <ele>30.4188</ele>
        <time>2012-02-29T16:13:47Z</time>
      </trkpt>
      <trkpt lat="59.9766401" lon="17.7394278">
        <ele>29.9381</ele>
        <time>2012-02-29T16:13:49Z</time>
      </trkpt>
      <trkpt lat="59.9767471" lon="17.7393932">
        <ele>28.9769</ele>
        <time>2012-02-29T16:13:56Z</time>
      </trkpt>
      <trkpt lat="59.9768811" lon="17.7393741">
        <ele>28.4962</ele>
        <time>2012-02-29T16:14:04Z</time>
      </trkpt>
      <trkpt lat="59.976983" lon="17.7393396">
        <ele>28.4962</ele>
        <time>2012-02-29T16:14:11Z</time>
      </trkpt>
      <trkpt lat="59.977079" lon="17.7392755">
        <ele>28.4962</ele>
        <time>2012-02-29T16:14:18Z</time>
      </trkpt>
      <trkpt lat="59.9771883" lon="17.739202">
        <ele>28.4962</ele>
        <time>2012-02-29T16:14:26Z</time>
      </trkpt>
      <trkpt lat="59.9772426" lon="17.7391512">
        <ele>28.4962</ele>
        <time>2012-02-29T16:14:30Z</time>
      </trkpt>
      <trkpt lat="59.9773396" lon="17.7390569">
        <ele>29.9381</ele>
        <time>2012-02-29T16:14:37Z</time>
      </trkpt>
      <trkpt lat="59.9774292" lon="17.7389891">
        <ele>31.8607</ele>
        <time>2012-02-29T16:14:43Z</time>
      </trkpt>
      <trkpt lat="59.9774606" lon="17.7389731">
        <ele>32.3416</ele>
        <time>2012-02-29T16:14:45Z</time>
      </trkpt>
      <trkpt lat="59.9775665" lon="17.7389554">
        <ele>33.3029</ele>
        <time>2012-02-29T16:14:52Z</time>
      </trkpt>
      <trkpt lat="59.9776781" lon="17.7389731">
        <ele>35.2255</ele>
        <time>2012-02-29T16:14:59Z</time>
      </trkpt>
      <trkpt lat="59.9777372" lon="17.7389824">
        <ele>36.1868</ele>
        <time>2012-02-29T16:15:03Z</time>
      </trkpt>
      <trkpt lat="59.9778135" lon="17.7390066">
        <ele>36.1868</ele>
        <time>2012-02-29T16:15:09Z</time>
      </trkpt>
      <trkpt lat="59.9778793" lon="17.7390301">
        <ele>38.5901</ele>
        <time>2012-02-29T16:15:12Z</time>
      </trkpt>
      <trkpt lat="59.9779675" lon="17.7390703">
        <ele>40.9934</ele>
        <time>2012-02-29T16:15:18Z</time>
      </trkpt>
      <trkpt lat="59.9780452" lon="17.7390869">
        <ele>41.474</ele>
        <time>2012-02-29T16:15:22Z</time>
      </trkpt>
      <trkpt lat="59.97811" lon="17.7391049">
        <ele>41.9547</ele>
        <time>2012-02-29T16:15:26Z</time>
      </trkpt>
      <trkpt lat="59.9781901" lon="17.7391552">
        <ele>40.9934</ele>
        <time>2012-02-29T16:15:32Z</time>
      </trkpt>
      <trkpt lat="59.9782386" lon="17.7391694">
        <ele>40.9934</ele>
        <time>2012-02-29T16:15:36Z</time>
      </trkpt>
      <trkpt lat="59.9782549" lon="17.7391739">
        <ele>40.5128</ele>
        <time>2012-02-29T16:15:37Z</time>
      </trkpt>
      <trkpt lat="59.9783757" lon="17.7391942">
        <ele>40.0321</ele>
        <time>2012-02-29T16:15:44Z</time>
      </trkpt>
      <trkpt lat="59.9784534" lon="17.7392189">
        <ele>38.1094</ele>
        <time>2012-02-29T16:15:49Z</time>
      </trkpt>
      <trkpt lat="59.9785297" lon="17.7392487">
        <ele>36.6675</ele>
        <time>2012-02-29T16:15:54Z</time>
      </trkpt>
      <trkpt lat="59.9786018" lon="17.7392843">
        <ele>37.1481</ele>
        <time>2012-02-29T16:15:59Z</time>
      </trkpt>
      <trkpt lat="59.9787267" lon="17.7393149">
        <ele>36.6675</ele>
        <time>2012-02-29T16:16:06Z</time>
      </trkpt>
      <trkpt lat="59.9788138" lon="17.7393263">
        <ele>34.7449</ele>
        <time>2012-02-29T16:16:13Z</time>
      </trkpt>
      <trkpt lat="59.9789058" lon="17.739361">
        <ele>34.2642</ele>
        <time>2012-02-29T16:16:19Z</time>
      </trkpt>
      <trkpt lat="59.9789796" lon="17.7395314">
        <ele>36.1868</ele>
        <time>2012-02-29T16:16:27Z</time>
      </trkpt>
      <trkpt lat="59.9789884" lon="17.7395834">
        <ele>36.1868</ele>
        <time>2012-02-29T16:16:29Z</time>
      </trkpt>
      <trkpt lat="59.9789666" lon="17.739708">
        <ele>36.1868</ele>
        <time>2012-02-29T16:16:33Z</time>
      </trkpt>
      <trkpt lat="59.9789633" lon="17.7398413">
        <ele>36.6675</ele>
        <time>2012-02-29T16:16:37Z</time>
      </trkpt>
      <trkpt lat="59.9789203" lon="17.7399229">
        <ele>36.6675</ele>
        <time>2012-02-29T16:16:43Z</time>
      </trkpt>
    </trkseg>
  </trk>
</gpx>